AirNav   Air Wisconsin Up To $57,000 Bonus
 
 1654 users online  

NH06 Dynasty Farms Heliport
Salem, New Hampshire, USA

GOING TO SALEM?


FAA INFORMATION EFFECTIVE 02 JANUARY 2020

Location

FAA Identifier: NH06
Lat/Long: 42-48-12.3200N 071-10-58.2100W
42-48.205333N 071-10.970167W
42.8034222,-71.1828361
(estimated)
Elevation: 295 ft. / 90 m (estimated)
Variation: 16W (1995)
From city: 3 miles NE of SALEM, NH
Time zone: UTC -5 (UTC -4 during Daylight Saving Time)
Zip code: 03079

Heliport Operations

Heliport use: Private use. Permission required prior to landing
Activation date: 05/1999
Control tower: no
ARTCC: BOSTON CENTER
FSS: BANGOR FLIGHT SERVICE STATION
Attendance: CONTINUOUS
Segmented circle: no

Heliport Communications

WX ASOS at LWM (6 nm SE): PHONE 978-687-8017
WX ASOS at MHT (14 nm NW): 119.55 (603-621-1766)
WX AWOS-3PT at ASH (15 nm W): 125.1 (603-578-0473)
WX ASOS at BVY (18 nm SE): PHONE 978-921-5042

Nearby radio navigation aids

VOR radial/distance  VOR name  Freq  Var
LWMr329/5.4LAWRENCE VOR/DME112.5015W
MHTr130/9.1MANCHESTER VOR/DME114.4015W
PSMr238/22.8PEASE VOR/DME116.5016W
BOSr358/28.1BOSTON VOR/DME112.7016W
CONr160/30.3CONCORD VOR/DME112.9015W

 
NDB name  Hdg/Dist  Freq  Var  ID
ROLLINS228/29.426016WESG . ... --.

Heliport Services

Runway Information

Helipad H1

Dimensions: 100 x 100 ft. / 30 x 30 m
Surface: turf
Traffic pattern: leftleft

Heliport Ownership and Management from official FAA records

Ownership: Privately-owned
Owner: ROBERT G. DONNELLY
11 LIBERTY ST
SALEM, NH 03079
Phone 603-898-7123
Manager: ROBERT G. DONNELLY
11 LIBERTY ST
SALEM,, NH 03079
Phone 603-898-7123

Heliport Operational Statistics

Aircraft based on the field: 1
Helicopters: 1
    

Additional Remarks

FOR CD CTC BOSTON APCH AT 603-594-5551.

Instrument Procedures

There are no published instrument procedures at NH06.

Some nearby airports with instrument procedures:

KLWM - Lawrence Municipal Airport (6 nm SE)
KMHT - Manchester Airport (14 nm NW)
KASH - Boire Field Airport (15 nm W)
KBVY - Beverly Regional Airport (18 nm SE)
KBED - Laurence G Hanscom Field Airport (21 nm S)
 
Loc | Ops | Rwys | IFR | FBO | Links
Com | Nav | Svcs | Stats | Notes
Area around NH06 (Dynasty Farms Heliport)
 
Road maps at: MapQuest Bing Google
 
Aerial photo
No photo
 
Sectional chart

 
Airport distance calculator
Flying to Dynasty Farms Heliport? Find the distance to fly.

From to NH06

Sunrise and sunset
Times for 22-Jan-2020
 Local
(UTC-5)
 Zulu
(UTC)
Morning civil twilight06:3911:39
Sunrise07:0912:09
Sunset16:4321:43
Evening civil twilight17:1422:14

Current date and time
Zulu (UTC)  22-Jan-2020 20:04:47
Local (UTC-5)  22-Jan-2020 15:04:47
 
METAR
KLWM 
6nm SE 
221954Z 23006KT 10SM CLR 01/M09 A3039 RMK AO2 SLP292 T00111089
KMHT 
13nm NW 
221953Z 00000KT 10SM SCT250 03/M09 A3035 RMK AO2 SLP298 T00281089
KASH 
15nm W 
221956Z 00000KT 10SM CLR 02/M09 A3037 RMK AO2 SLP293 T00221089
KBVY 
18nm SE 
221953Z 29005KT 10SM CLR 02/M09 A3038 RMK AO2 SLP284 T00171094
TAF
KMHT 
13nm NW 
221720Z 2218/2318 VRB03KT P6SM SCT250
NOTAMs
Click for the latest NOTAMs
NOTAMs are issued by the DoD/FAA and will open in a separate window not controlled by AirNav.

 

 
 

Would you like to see your business listed on this page?

 If your business provides an interesting product or service to pilots, flight crews, aircraft, or users of the Dynasty Farms Heliport, you should consider listing it here.  To start the listing process, click on the button below
 
Add a business
 

Other Pages about Dynasty Farms Heliport

Update a link
 
Copyright © AirNav, LLC. All rights reserved. Privacy Policy  Contact